Terminal Aerodrome Forecast
Issued by NWS

Home | Current Version | Previous Version | Graphics & Text | Print | Product List | Glossary On
Versions: 1 2 3 4 5 6 7 8 9 10 11 12 13 14 15 16 17 18
000
FTUS43 KGRB 270522
TAFMTW
TAF
KMTW 270522Z 2706/2806 00000KT P6SM SCT100 BKN120
     FM271000 VRB03KT 6SM -RA BR SCT025 OVC060
     FM271500 09010KT 5SM -SHRA BR BKN015
     FM272100 11008KT P6SM BKN025=

USA.gov is the U.S. government's official web portal to all federal, state and local government web resources and services.